createdAt,value
2016-08-03T00:00:34.740Z,99.99
2016-08-03T00:01:34.761Z,99.99
2016-08-03T00:02:34.802Z,99.99
2016-08-03T00:03:34.809Z,99.99
2016-08-03T00:04:34.203Z,99.99
2016-08-03T00:05:34.851Z,99.99
2016-08-03T00:06:34.869Z,99.99
2016-08-03T00:07:34.894Z,99.99
2016-08-03T00:08:34.951Z,99.99
2016-08-03T00:09:34.228Z,99.99
2016-08-03T00:10:35.003Z,99.99
2016-08-03T00:11:34.986Z,99.99
2016-08-03T00:12:35.002Z,99.99
2016-08-03T00:14:35.041Z,99.99
2016-08-03T00:15:34.355Z,99.99
2016-08-03T00:16:34.385Z,99.99
2016-08-03T00:17:35.203Z,99.99
2016-08-03T00:18:34.500Z,99.99
2016-08-03T00:19:35.162Z,99.99
2016-08-03T00:20:35.169Z,99.99
2016-08-03T00:21:35.188Z,99.99
2016-08-03T00:22:34.524Z,99.99
2016-08-03T00:23:35.231Z,99.99
2016-08-03T00:24:34.546Z,99.99
2016-08-03T00:25:34.581Z,99.99
2016-08-03T00:26:34.591Z,99.99
2016-08-03T00:27:35.318Z,99.99
2016-08-03T00:29:35.360Z,99.99
2016-08-03T00:30:35.379Z,99.99
2016-08-03T00:31:34.699Z,99.99
2016-08-03T00:32:34.718Z,99.99
2016-08-03T00:33:35.460Z,99.99
2016-08-03T00:34:35.493Z,99.99
2016-08-03T00:35:34.793Z,99.99
2016-08-03T00:36:34.802Z,99.99
2016-08-03T00:37:35.533Z,99.99
2016-08-03T00:38:35.559Z,99.99
2016-08-03T00:39:35.590Z,99.99
2016-08-03T00:40:35.594Z,99.99
2016-08-03T00:41:34.920Z,99.99
2016-08-03T00:42:35.630Z,99.99
2016-08-03T00:44:35.675Z,99.99
2016-08-03T00:45:35.726Z,99.99
2016-08-03T00:46:35.021Z,99.99
2016-08-03T00:47:35.741Z,99.99
2016-08-03T00:48:35.760Z,99.99
2016-08-03T00:49:35.082Z,99.99
2016-08-03T00:50:35.860Z,99.99
2016-08-03T00:51:35.145Z,99.99
2016-08-03T00:52:35.911Z,99.99
2016-08-03T00:53:35.181Z,99.99
2016-08-03T00:54:35.941Z,99.99
2016-08-03T00:55:35.910Z,99.99
2016-08-03T00:56:35.980Z,99.99
2016-08-03T00:57:35.250Z,99.99
2016-08-03T00:59:35.307Z,99.99
2016-08-03T01:00:36.010Z,99.99
2016-08-03T01:01:36.040Z,99.99
2016-08-03T01:02:36.061Z,99.99
2016-08-03T01:03:35.390Z,99.99
2016-08-03T01:04:35.399Z,99.99
2016-08-03T01:05:36.237Z,99.99
2016-08-03T01:06:36.150Z,99.99
2016-08-03T01:07:36.190Z,99.99
2016-08-03T01:08:36.202Z,99.99
2016-08-03T01:09:36.222Z,99.99
2016-08-03T01:10:36.233Z,99.99
2016-08-03T01:11:36.272Z,99.99
2016-08-03T01:12:36.271Z,99.99
2016-08-03T01:13:36.300Z,99.99
2016-08-03T01:14:35.670Z,99.99
2016-08-03T01:15:35.626Z,99.99
2016-08-03T01:16:36.360Z,99.99
2016-08-03T01:17:36.381Z,99.99
2016-08-03T01:18:35.703Z,99.99
2016-08-03T01:19:36.421Z,99.99
2016-08-03T01:20:36.440Z,99.99
2016-08-03T01:21:36.470Z,99.99
2016-08-03T01:22:35.789Z,99.99
2016-08-03T01:23:36.501Z,99.99
2016-08-03T01:24:36.542Z,99.99
2016-08-03T01:25:36.553Z,99.99
2016-08-03T01:26:36.572Z,99.99
2016-08-03T01:27:36.602Z,99.99
2016-08-03T01:28:35.902Z,99.99
2016-08-03T01:29:35.922Z,99.99
2016-08-03T01:30:35.956Z,99.99
2016-08-03T01:31:35.963Z,99.99
2016-08-03T01:32:35.992Z,99.99
2016-08-03T01:33:36.720Z,99.99
2016-08-03T01:34:36.748Z,99.99
2016-08-03T01:35:36.762Z,99.99
2016-08-03T01:36:36.781Z,99.99
2016-08-03T01:37:36.809Z,99.99
2016-08-03T01:38:36.117Z,99.99
2016-08-03T01:39:36.848Z,99.99
2016-08-03T01:40:36.162Z,99.99
2016-08-03T01:41:36.892Z,99.99
2016-08-03T01:42:36.202Z,99.99
2016-08-03T01:43:36.932Z,99.99
2016-08-03T01:44:36.251Z,99.99
2016-08-03T01:45:36.266Z,99.99
2016-08-03T01:46:37.011Z,99.99
2016-08-03T01:47:37.020Z,99.99
2016-08-03T01:48:37.039Z,99.99
2016-08-03T01:49:37.065Z,99.99
2016-08-03T01:50:37.079Z,99.99
2016-08-03T01:51:37.101Z,99.99
2016-08-03T01:52:36.411Z,99.99
2016-08-03T01:53:37.156Z,99.99
2016-08-03T01:54:37.171Z,99.99
2016-08-03T01:55:37.279Z,99.99
2016-08-03T01:56:37.212Z,99.99
2016-08-03T01:57:37.238Z,99.99
2016-08-03T01:58:37.251Z,99.99
2016-08-03T01:59:37.283Z,99.99
2016-08-03T02:00:36.590Z,99.99
2016-08-03T02:01:37.336Z,99.99
2016-08-03T02:02:37.335Z,99.99
2016-08-03T02:03:37.371Z,99.99
2016-08-03T02:04:37.379Z,99.99
2016-08-03T02:05:37.393Z,99.99
2016-08-03T02:06:37.425Z,99.99
2016-08-03T02:07:37.447Z,99.99
2016-08-03T02:08:37.471Z,99.99
2016-08-03T02:09:37.489Z,99.99
2016-08-03T02:10:37.512Z,99.99
2016-08-03T02:11:37.539Z,99.99
2016-08-03T02:12:37.558Z,99.99
2016-08-03T02:13:37.572Z,99.99
2016-08-03T02:14:37.612Z,99.99
2016-08-03T02:15:37.766Z,99.99
2016-08-03T02:16:37.638Z,99.99
2016-08-03T02:17:37.762Z,99.99
2016-08-03T02:18:36.973Z,99.99
2016-08-03T02:19:37.750Z,99.99
2016-08-03T02:20:37.013Z,99.99
2016-08-03T02:21:37.737Z,99.99
2016-08-03T02:22:37.783Z,99.99
2016-08-03T02:23:37.787Z,99.99
2016-08-03T02:24:37.105Z,99.99
2016-08-03T02:25:37.829Z,99.99
2016-08-03T02:26:37.269Z,99.99
2016-08-03T02:27:37.878Z,99.99
2016-08-03T02:28:37.278Z,99.99
2016-08-03T02:29:37.923Z,99.99
2016-08-03T02:30:37.948Z,99.99
2016-08-03T02:31:37.962Z,99.99
2016-08-03T02:32:37.280Z,99.99
2016-08-03T02:33:38.000Z,99.99
2016-08-03T02:34:38.022Z,99.99
2016-08-03T02:35:38.040Z,99.99
2016-08-03T02:36:38.071Z,99.99
2016-08-03T02:37:37.602Z,99.99
2016-08-03T02:38:37.486Z,99.99
2016-08-03T02:39:38.153Z,99.99
2016-08-03T02:40:38.157Z,99.99
2016-08-03T02:41:37.573Z,99.99
2016-08-03T02:42:37.503Z,99.99
2016-08-03T02:43:38.220Z,99.99
2016-08-03T02:44:37.526Z,99.99
2016-08-03T02:45:38.267Z,99.99
2016-08-03T02:46:37.571Z,99.99
2016-08-03T02:47:38.306Z,99.99
2016-08-03T02:48:37.632Z,99.99
2016-08-03T02:49:38.347Z,99.99
2016-08-03T02:50:37.853Z,99.99
2016-08-03T02:51:38.399Z,99.99
2016-08-03T02:52:37.813Z,99.99
2016-08-03T02:53:37.732Z,99.99
2016-08-03T02:54:37.852Z,99.99
2016-08-03T02:55:38.483Z,99.99
2016-08-03T02:56:37.800Z,99.99
2016-08-03T02:57:38.528Z,99.99
2016-08-03T02:58:37.836Z,99.99
2016-08-03T02:59:38.568Z,99.99
2016-08-03T03:00:38.593Z,99.99
2016-08-03T03:01:37.911Z,99.99
2016-08-03T03:02:38.631Z,99.99
2016-08-03T03:03:38.665Z,99.99
2016-08-03T03:04:38.684Z,99.99
2016-08-03T03:05:38.744Z,99.99
2016-08-03T03:06:38.728Z,99.99
2016-08-03T03:07:38.746Z,99.99
2016-08-03T03:08:38.769Z,99.99
2016-08-03T03:09:38.779Z,99.99
2016-08-03T03:10:38.808Z,99.99
2016-08-03T03:11:38.844Z,99.99
2016-08-03T03:12:38.862Z,99.99
2016-08-03T03:13:38.876Z,99.99
2016-08-03T03:14:38.891Z,99.99
2016-08-03T03:15:38.212Z,99.99
2016-08-03T03:16:38.940Z,99.99
2016-08-03T03:17:38.967Z,99.99
2016-08-03T03:18:39.004Z,99.99
2016-08-03T03:19:39.019Z,99.99
2016-08-03T03:20:39.052Z,99.99
2016-08-03T03:21:39.036Z,99.99
2016-08-03T03:22:39.151Z,99.99
2016-08-03T03:23:38.482Z,99.99
2016-08-03T03:24:39.119Z,99.99
2016-08-03T03:25:38.432Z,99.99
2016-08-03T03:26:39.160Z,99.99
2016-08-03T03:27:39.184Z,99.99
2016-08-03T03:28:39.201Z,99.99
2016-08-03T03:29:38.521Z,99.99
2016-08-03T03:30:38.622Z,99.99
2016-08-03T03:31:38.550Z,99.99
2016-08-03T03:32:39.304Z,99.99
2016-08-03T03:33:38.600Z,99.99
2016-08-03T03:34:39.337Z,99.99
2016-08-03T03:35:38.741Z,99.99
2016-08-03T03:36:39.367Z,99.99
2016-08-03T03:37:38.699Z,99.99
2016-08-03T03:38:38.721Z,99.99
2016-08-03T03:39:39.441Z,99.99
2016-08-03T03:40:38.763Z,99.99
2016-08-03T03:41:39.491Z,99.99
2016-08-03T03:42:39.512Z,99.99
2016-08-03T03:43:38.908Z,99.99
2016-08-03T03:44:39.573Z,99.99
2016-08-03T03:45:39.601Z,99.99
2016-08-03T03:46:39.604Z,99.99
2016-08-03T03:47:39.200Z,99.99
2016-08-03T03:48:39.145Z,99.99
2016-08-03T03:49:39.957Z,99.99
2016-08-03T03:50:39.182Z,99.99
2016-08-03T03:51:39.312Z,99.99
2016-08-03T03:52:39.831Z,99.99
2016-08-03T03:53:39.311Z,99.99
2016-08-03T03:54:39.110Z,99.99
2016-08-03T03:55:39.992Z,99.99
2016-08-03T03:56:39.872Z,99.99
2016-08-03T03:57:39.230Z,99.99
2016-08-03T03:58:39.162Z,99.99
2016-08-03T03:59:39.877Z,99.99
2016-08-03T04:00:39.201Z,99.99
2016-08-03T04:01:39.930Z,99.99
2016-08-03T04:02:39.951Z,99.99
2016-08-03T04:03:39.988Z,99.99
2016-08-03T04:04:39.331Z,99.99
2016-08-03T04:05:40.024Z,99.99
2016-08-03T04:06:40.043Z,99.99
2016-08-03T04:07:40.071Z,99.99
2016-08-03T04:08:40.090Z,99.99
2016-08-03T04:09:40.126Z,99.99
2016-08-03T04:10:40.130Z,99.99
2016-08-03T04:11:39.452Z,99.99
2016-08-03T04:12:40.181Z,99.99
2016-08-03T04:13:40.201Z,99.99
2016-08-03T04:14:40.729Z,99.99
2016-08-03T04:15:39.635Z,99.99
2016-08-03T04:16:39.560Z,99.99
2016-08-03T04:17:40.285Z,99.99
2016-08-03T04:18:40.313Z,99.99
2016-08-03T04:19:40.320Z,99.99
2016-08-03T04:20:40.346Z,99.99
2016-08-03T04:21:40.372Z,99.99
2016-08-03T04:22:40.390Z,99.99
2016-08-03T04:23:39.717Z,99.99
2016-08-03T04:24:40.430Z,99.99
2016-08-03T04:25:39.760Z,99.99
2016-08-03T04:26:40.532Z,99.99
2016-08-03T04:27:40.501Z,99.99
2016-08-03T04:28:40.533Z,99.99
2016-08-03T04:29:41.070Z,99.99
2016-08-03T04:30:39.900Z,99.99
2016-08-03T04:31:40.594Z,99.99
2016-08-03T04:32:40.621Z,99.99
2016-08-03T04:33:39.942Z,99.99
2016-08-03T04:34:39.963Z,99.99
2016-08-03T04:35:40.700Z,99.99
2016-08-03T04:36:40.706Z,99.99
2016-08-03T04:37:40.720Z,99.99
2016-08-03T04:38:40.752Z,99.99
2016-08-03T04:39:40.772Z,99.99
2016-08-03T04:40:40.814Z,99.99
2016-08-03T04:41:40.822Z,99.99
2016-08-03T04:42:40.837Z,99.99
2016-08-03T04:43:40.162Z,99.99
2016-08-03T04:45:40.198Z,99.99
2016-08-03T04:46:40.934Z,99.99
2016-08-03T04:47:40.962Z,99.99
2016-08-03T04:48:40.990Z,99.99
2016-08-03T04:49:40.998Z,99.99
2016-08-03T04:50:40.311Z,99.99
2016-08-03T04:51:41.043Z,99.99
2016-08-03T04:52:41.062Z,99.99
2016-08-03T04:53:40.382Z,99.99
2016-08-03T04:54:40.393Z,99.99
2016-08-03T04:55:40.432Z,99.99
2016-08-03T04:56:40.443Z,99.99
2016-08-03T04:57:41.183Z,99.99
2016-08-03T04:58:41.212Z,99.99
2016-08-03T04:59:40.513Z,99.99
2016-08-03T05:00:40.532Z,99.99
2016-08-03T05:01:40.567Z,99.99
2016-08-03T05:02:41.297Z,99.99
2016-08-03T05:03:41.311Z,99.99
2016-08-03T05:04:41.334Z,99.99
2016-08-03T05:05:41.371Z,99.99
2016-08-03T05:06:41.381Z,99.99
2016-08-03T05:07:41.399Z,99.99
2016-08-03T05:08:41.429Z,99.99
2016-08-03T05:09:41.448Z,99.99
2016-08-03T05:10:40.775Z,99.99
2016-08-03T05:11:41.482Z,99.99
2016-08-03T05:12:41.519Z,99.99
2016-08-03T05:13:41.533Z,99.99
2016-08-03T05:14:40.854Z,99.99
2016-08-03T05:15:40.956Z,99.99
2016-08-03T05:16:41.607Z,99.99
2016-08-03T05:17:41.621Z,99.99
2016-08-03T05:18:41.658Z,99.99
2016-08-03T05:19:41.689Z,99.99
2016-08-03T05:20:41.696Z,99.99
2016-08-03T05:21:41.711Z,99.99
2016-08-03T05:22:41.036Z,99.99
2016-08-03T05:23:41.052Z,99.99
2016-08-03T05:24:41.778Z,99.99
2016-08-03T05:25:41.889Z,99.99
2016-08-03T05:26:41.121Z,99.99
2016-08-03T05:27:41.143Z,99.99
2016-08-03T05:28:41.165Z,99.99
2016-08-03T05:29:41.892Z,99.99
2016-08-03T05:30:41.203Z,99.99
2016-08-03T05:31:41.932Z,99.99
2016-08-03T05:32:41.263Z,99.99
2016-08-03T05:33:42.003Z,99.99
2016-08-03T05:34:41.292Z,99.99
2016-08-03T05:35:41.321Z,99.99
2016-08-03T05:36:41.355Z,99.99
2016-08-03T05:37:41.360Z,99.99
2016-08-03T05:38:42.104Z,99.99
2016-08-03T05:39:42.121Z,99.99
2016-08-03T05:40:42.152Z,99.99
2016-08-03T05:41:41.462Z,99.99
2016-08-03T05:42:42.194Z,99.99
2016-08-03T05:43:42.220Z,99.99
2016-08-03T05:44:42.239Z,99.99
2016-08-03T05:45:42.262Z,99.99
2016-08-03T05:46:41.572Z,99.99
2016-08-03T05:47:42.309Z,99.99
2016-08-03T05:48:41.623Z,99.99
2016-08-03T05:49:42.442Z,99.99
2016-08-03T05:50:42.378Z,99.99
2016-08-03T05:51:41.688Z,99.99
2016-08-03T05:52:42.414Z,99.99
2016-08-03T05:53:41.731Z,99.99
2016-08-03T05:54:42.462Z,99.99
2016-08-03T05:55:42.479Z,99.99
2016-08-03T05:56:42.512Z,99.99
2016-08-03T05:57:42.523Z,99.99
2016-08-03T05:58:41.842Z,99.99
2016-08-03T05:59:42.583Z,99.99
2016-08-03T06:00:41.882Z,99.99
2016-08-03T06:01:42.616Z,99.99
2016-08-03T06:02:41.931Z,99.99
2016-08-03T06:03:42.674Z,99.99
2016-08-03T06:04:42.684Z,99.99
2016-08-03T06:05:42.718Z,99.99
2016-08-03T06:06:42.023Z,99.99
2016-08-03T06:07:42.749Z,99.99
2016-08-03T06:08:42.795Z,99.99
2016-08-03T06:09:42.801Z,99.99
2016-08-03T06:10:42.831Z,99.99
2016-08-03T06:11:42.875Z,99.99
2016-08-03T06:12:42.172Z,99.99
2016-08-03T06:13:42.960Z,99.99
2016-08-03T06:14:42.905Z,99.99
2016-08-03T06:15:42.942Z,99.99
2016-08-03T06:16:42.971Z,99.99
2016-08-03T06:17:43.003Z,99.99
2016-08-03T06:18:42.302Z,99.99
2016-08-03T06:19:42.320Z,99.99
2016-08-03T06:20:43.055Z,99.99
2016-08-03T06:21:43.074Z,99.99
2016-08-03T06:22:43.102Z,99.99
2016-08-03T06:23:43.129Z,99.99
2016-08-03T06:24:43.165Z,99.99
2016-08-03T06:25:43.179Z,99.99
2016-08-03T06:26:42.493Z,99.99
2016-08-03T06:27:43.213Z,99.99
2016-08-03T06:28:43.250Z,99.99
2016-08-03T06:29:43.261Z,99.99
2016-08-03T06:30:42.598Z,99.99
2016-08-03T06:31:43.319Z,99.99
2016-08-03T06:32:43.365Z,99.99
2016-08-03T06:33:43.353Z,99.99
2016-08-03T06:34:43.384Z,99.99
2016-08-03T06:35:43.397Z,99.99
2016-08-03T06:36:43.431Z,99.99
2016-08-03T06:37:43.455Z,99.99
2016-08-03T06:38:43.483Z,99.99
2016-08-03T06:39:43.502Z,99.99
2016-08-03T06:40:43.528Z,99.99
2016-08-03T06:41:43.552Z,99.99
2016-08-03T06:42:43.570Z,99.99
2016-08-03T06:43:43.588Z,99.99
2016-08-03T06:44:43.619Z,99.99
2016-08-03T06:45:43.640Z,99.99
2016-08-03T06:46:43.674Z,99.99
2016-08-03T06:47:43.674Z,99.99
2016-08-03T06:48:43.000Z,99.99
2016-08-03T06:49:43.731Z,99.99
2016-08-03T06:50:43.753Z,99.99
2016-08-03T06:51:43.771Z,99.99
2016-08-03T06:52:43.852Z,99.99
2016-08-03T06:53:43.229Z,99.99
2016-08-03T06:54:43.850Z,99.99
2016-08-03T06:55:43.265Z,99.99
2016-08-03T06:56:43.179Z,99.99
2016-08-03T06:57:43.253Z,99.99
2016-08-03T06:58:43.933Z,99.99
2016-08-03T06:59:44.023Z,99.99
2016-08-03T07:00:43.989Z,99.99
2016-08-03T07:01:44.004Z,99.99
2016-08-03T07:02:43.316Z,99.99
2016-08-03T07:03:43.342Z,99.99
2016-08-03T07:04:44.070Z,99.99
2016-08-03T07:05:43.392Z,99.99
2016-08-03T07:06:44.123Z,99.99
2016-08-03T07:07:44.152Z,99.99
2016-08-03T07:08:44.179Z,99.99
2016-08-03T07:09:44.251Z,99.99
2016-08-03T07:10:43.521Z,99.99
2016-08-03T07:11:43.535Z,99.99
2016-08-03T07:12:44.257Z,99.99
2016-08-03T07:13:44.300Z,99.99
2016-08-03T07:14:44.320Z,99.99
2016-08-03T07:15:44.354Z,99.99
2016-08-03T07:16:43.653Z,99.99
2016-08-03T07:17:43.690Z,99.99
2016-08-03T07:18:43.707Z,99.99
2016-08-03T07:19:43.739Z,99.99
2016-08-03T07:20:44.455Z,99.45
2016-08-03T07:21:44.487Z,99.84
2016-08-03T07:22:44.509Z,99.64
2016-08-03T07:23:43.834Z,99.55
2016-08-03T07:24:44.548Z,98.92
2016-08-03T07:25:43.873Z,99.3
2016-08-03T07:26:44.602Z,97.42
2016-08-03T07:27:44.633Z,97.52
2016-08-03T07:28:44.655Z,97.04
2016-08-03T07:29:43.978Z,96.8
2016-08-03T07:30:44.711Z,96.41
2016-08-03T07:31:44.726Z,96.51
2016-08-03T07:32:44.747Z,96.03
2016-08-03T07:33:44.774Z,95.64
2016-08-03T07:34:44.108Z,95.93
2016-08-03T07:35:44.830Z,96.12
2016-08-03T07:36:44.858Z,96.41
2016-08-03T07:37:44.167Z,96.51
2016-08-03T07:38:44.900Z,96.51
2016-08-03T07:39:44.228Z,96.61
2016-08-03T07:40:44.968Z,96.51
2016-08-03T07:41:44.988Z,96.8
2016-08-03T07:42:45.011Z,97.09
2016-08-03T07:43:45.031Z,96.99
2016-08-03T07:44:44.343Z,96.89
2016-08-03T07:45:44.372Z,96.7
2016-08-03T07:46:45.102Z,96.8
2016-08-03T07:47:45.181Z,96.22
2016-08-03T07:48:45.154Z,96.03
2016-08-03T07:49:45.262Z,96.31
2016-08-03T07:50:45.256Z,96.61
2016-08-03T07:51:45.214Z,96.03
2016-08-03T07:52:44.544Z,96.22
2016-08-03T07:53:45.269Z,95.74
2016-08-03T07:54:45.313Z,95.74
2016-08-03T07:55:45.324Z,95.83
2016-08-03T07:56:44.638Z,96.41
2016-08-03T07:57:45.380Z,96.03
2016-08-03T07:58:44.695Z,95.64
2016-08-03T07:59:45.423Z,96.12
2016-08-03T08:00:45.454Z,95.01
2016-08-03T08:01:45.473Z,94.72
2016-08-03T08:02:45.503Z,94.34
2016-08-03T08:03:45.537Z,93.56
2016-08-03T08:04:45.543Z,93.47
2016-08-03T08:05:45.574Z,93.76
2016-08-03T08:06:44.891Z,93.76
2016-08-03T08:07:44.924Z,93.76
2016-08-03T08:08:45.645Z,94.43
2016-08-03T08:09:45.704Z,94.53
2016-08-03T08:10:45.003Z,94.34
2016-08-03T08:11:45.098Z,94.43
2016-08-03T08:12:45.762Z,95.25
2016-08-03T08:13:45.771Z,94.96
2016-08-03T08:14:45.223Z,95.93
2016-08-03T08:15:45.121Z,96.75
2016-08-03T08:16:45.931Z,97.42
2016-08-03T08:17:45.183Z,98.49
2016-08-03T08:18:45.910Z,98.34
2016-08-03T08:19:45.962Z,98.34
2016-08-03T08:20:45.951Z,98.92
2016-08-03T08:21:45.993Z,99.6
2016-08-03T08:22:45.301Z,99.99
2016-08-03T08:23:45.414Z,99.74
2016-08-03T08:24:45.353Z,99.55
2016-08-03T08:25:46.204Z,99.69
2016-08-03T08:26:46.122Z,98.92
2016-08-03T08:27:46.182Z,98.63
2016-08-03T08:28:45.456Z,98.34
2016-08-03T08:29:46.192Z,98.34
2016-08-03T08:30:45.934Z,98.34
2016-08-03T08:31:46.226Z,99.02
2016-08-03T08:32:46.252Z,98.63
2016-08-03T08:33:46.284Z,98.87
2016-08-03T08:34:46.298Z,98.44
2016-08-03T08:35:46.333Z,98.92
2016-08-03T08:36:46.362Z,98.44
2016-08-03T08:37:46.397Z,98.54
2016-08-03T08:38:46.422Z,98.39
2016-08-03T08:39:45.734Z,98.2
2016-08-03T08:40:46.514Z,98.49
2016-08-03T08:41:46.480Z,97.62
2016-08-03T08:42:46.497Z,97.62
2016-08-03T08:43:46.538Z,96.84
2016-08-03T08:44:46.548Z,96.66
2016-08-03T08:46:46.605Z,95.74
2016-08-03T08:47:45.932Z,95.93
2016-08-03T08:48:46.671Z,95.93
2016-08-03T08:49:46.688Z,95.64
2016-08-03T08:50:46.720Z,95.06
2016-08-03T08:51:46.024Z,94.58
2016-08-03T08:52:46.756Z,94.58
2016-08-03T08:53:46.783Z,95.06
2016-08-03T08:54:46.813Z,94.62
2016-08-03T08:55:46.135Z,93.66
2016-08-03T08:56:46.867Z,93.85
2016-08-03T08:57:46.890Z,93.95
2016-08-03T08:58:46.903Z,93.47
2016-08-03T08:59:46.236Z,93.27
2016-08-03T09:00:46.969Z,93.27
2016-08-03T09:01:46.983Z,93.66
2016-08-03T09:02:47.105Z,93.76
2016-08-03T09:03:47.031Z,93.66
2016-08-03T09:04:47.062Z,93.66
2016-08-03T09:05:47.090Z,93.47
2016-08-03T09:06:47.175Z,92.69
2016-08-03T09:07:47.148Z,92.31
2016-08-03T09:08:47.173Z,92.31
2016-08-03T09:09:47.182Z,91.87
2016-08-03T09:10:47.211Z,92.55
2016-08-03T09:11:47.240Z,92.65
2016-08-03T09:12:47.261Z,91.97
2016-08-03T09:13:47.293Z,91.97
2016-08-03T09:14:47.346Z,91.53
2016-08-03T09:15:47.352Z,90.56
2016-08-03T09:16:47.360Z,91.05
2016-08-03T09:17:47.410Z,90.56
2016-08-03T09:18:47.440Z,89.45
2016-08-03T09:19:47.447Z,88.96
2016-08-03T09:20:47.473Z,88.48
2016-08-03T09:21:47.493Z,88.71
2016-08-03T09:22:46.822Z,88.23
2016-08-03T09:23:47.552Z,86.92
2016-08-03T09:24:47.600Z,86.24
2016-08-03T09:25:47.594Z,86
2016-08-03T09:26:47.632Z,84.64
2016-08-03T09:27:47.652Z,83.77
2016-08-03T09:28:46.981Z,84.64
2016-08-03T09:29:47.704Z,85.51
2016-08-03T09:30:47.732Z,85.71
2016-08-03T09:31:47.782Z,86.44
2016-08-03T09:32:47.783Z,86.82
2016-08-03T09:33:47.814Z,87.7
2016-08-03T09:34:47.843Z,88.04
2016-08-03T09:35:47.168Z,88.81
2016-08-03T09:36:47.891Z,88.96
2016-08-03T09:37:47.210Z,89.74
2016-08-03T09:38:47.939Z,89.2
2016-08-03T09:39:47.983Z,88.23
2016-08-03T09:40:48.002Z,87.85
2016-08-03T09:41:48.024Z,87.85
2016-08-03T09:42:48.055Z,87.55
2016-08-03T09:43:48.083Z,87.07
2016-08-03T09:44:47.515Z,86.05
2016-08-03T09:45:48.143Z,85.51
2016-08-03T09:46:48.170Z,84.16
2016-08-03T09:47:48.182Z,83.96
2016-08-03T09:48:47.512Z,84.45
2016-08-03T09:49:48.243Z,84.83
2016-08-03T09:50:48.301Z,84.83
2016-08-03T09:51:47.603Z,85.22
2016-08-03T09:52:48.332Z,86.24
2016-08-03T09:53:48.393Z,87.21
2016-08-03T09:54:48.622Z,88.04
2016-08-03T09:55:47.816Z,87.75
2016-08-03T09:56:47.723Z,88.39
2016-08-03T09:57:47.774Z,88.29
2016-08-03T09:58:48.484Z,88.96
2016-08-03T09:59:48.505Z,89.45
2016-08-03T10:00:48.530Z,89.35
2016-08-03T10:01:48.569Z,88.87
2016-08-03T10:02:48.603Z,88.87
2016-08-03T10:03:47.906Z,88.29
2016-08-03T10:04:48.653Z,88.96
2016-08-03T10:05:48.682Z,89.64
2016-08-03T10:06:48.732Z,88.96
2016-08-03T10:07:48.743Z,89.06
2016-08-03T10:08:48.755Z,88.87
2016-08-03T10:09:48.071Z,88.48
2016-08-03T10:10:48.810Z,89.11
2016-08-03T10:11:48.834Z,89.11
2016-08-03T10:12:48.861Z,89.01
2016-08-03T10:13:48.181Z,88.23
2016-08-03T10:14:48.213Z,87.75
2016-08-03T10:15:49.283Z,87.36
2016-08-03T10:16:49.062Z,86.49
2016-08-03T10:17:48.366Z,86.34
2016-08-03T10:18:49.123Z,85.86
2016-08-03T10:19:49.159Z,86.05
2016-08-03T10:20:49.120Z,86
2016-08-03T10:21:49.153Z,86.96
2016-08-03T10:22:49.167Z,86.48
2016-08-03T10:23:49.708Z,86.34
2016-08-03T10:24:49.173Z,86.88
2016-08-03T10:25:49.202Z,87.55
2016-08-03T10:26:48.539Z,88.23
2016-08-03T10:27:48.561Z,88.81
2016-08-03T10:28:49.339Z,89.64
2016-08-03T10:29:49.329Z,89.83
2016-08-03T10:30:49.440Z,89.83
2016-08-03T10:31:48.661Z,89.83
2016-08-03T10:32:48.683Z,89.54
2016-08-03T10:33:49.432Z,90.12
2016-08-03T10:34:49.450Z,90.22
2016-08-03T10:35:49.467Z,90.08
2016-08-03T10:36:49.786Z,90.75
2016-08-03T10:37:48.828Z,91.05
2016-08-03T10:38:49.571Z,91.82
2016-08-03T10:39:49.572Z,91.77
2016-08-03T10:40:49.621Z,93.13
2016-08-03T10:41:49.629Z,93.47
2016-08-03T10:42:49.661Z,94.43
2016-08-03T10:43:49.683Z,94.72
2016-08-03T10:44:49.709Z,95.93
2016-08-03T10:45:49.752Z,95.35
2016-08-03T10:46:49.769Z,95.35
2016-08-03T10:47:49.793Z,95.64
2016-08-03T10:48:49.308Z,96.31
2016-08-03T10:49:49.852Z,96.03
2016-08-03T10:50:49.961Z,96.41
2016-08-03T10:51:49.911Z,96.12
2016-08-03T10:52:49.213Z,95.54
2016-08-03T10:53:49.950Z,94.72
2016-08-03T10:54:49.571Z,93.37
2016-08-03T10:55:50.004Z,92.98
2016-08-03T10:56:50.018Z,91.97
2016-08-03T10:57:50.064Z,91.33
2016-08-03T10:58:49.364Z,89.83
2016-08-03T10:59:50.101Z,89.29
2016-08-03T11:00:49.418Z,88.23
2016-08-03T11:01:50.163Z,87.36
2016-08-03T11:02:50.173Z,88.23
2016-08-03T11:03:50.214Z,88.04
2016-08-03T11:04:49.521Z,88.43
2016-08-03T11:05:50.250Z,88.57
2016-08-03T11:06:49.573Z,88.33
2016-08-03T11:07:50.311Z,87.99
2016-08-03T11:08:50.342Z,87.7
2016-08-03T11:09:49.656Z,86.96
2016-08-03T11:10:50.441Z,86.48
2016-08-03T11:11:50.413Z,86.48
2016-08-03T11:12:50.431Z,87.06
2016-08-03T11:13:50.471Z,86.87
2016-08-03T11:14:50.491Z,87.02
2016-08-03T11:15:49.831Z,87.5
2016-08-03T11:16:50.553Z,87.99
2016-08-03T11:17:49.873Z,88.47
2016-08-03T11:18:50.609Z,87.5
2016-08-03T11:19:49.940Z,86.96
2016-08-03T11:20:49.951Z,86.09
2016-08-03T11:21:50.690Z,86.09
2016-08-03T11:22:50.701Z,86.09
2016-08-03T11:23:50.730Z,85.71
2016-08-03T11:24:50.772Z,86.29
2016-08-03T11:25:50.780Z,86.68
2016-08-03T11:26:50.110Z,87.79
2016-08-03T11:27:50.851Z,88.76
2016-08-03T11:28:50.155Z,89.59
2016-08-03T11:29:50.895Z,89.93
2016-08-03T11:30:50.911Z,90.7
2016-08-03T11:31:50.946Z,90.99
2016-08-03T11:32:50.981Z,92.06
2016-08-03T11:33:50.993Z,91.82
2016-08-03T11:34:50.330Z,91.91
2016-08-03T11:35:51.060Z,91.63
2016-08-03T11:36:50.371Z,91.63
2016-08-03T11:37:51.107Z,91.63
2016-08-03T11:38:51.134Z,91.91
2016-08-03T11:39:50.451Z,91.72
2016-08-03T11:40:51.183Z,91.38
2016-08-03T11:41:50.512Z,90.32
2016-08-03T11:42:50.526Z,89.74
2016-08-03T11:43:51.263Z,89.64
2016-08-03T11:44:51.303Z,89.88
2016-08-03T11:45:50.611Z,90.32
2016-08-03T11:46:51.343Z,89.97
2016-08-03T11:47:51.373Z,90.9
2016-08-03T11:48:50.679Z,90.75
2016-08-03T11:49:50.719Z,92.06
2016-08-03T11:50:50.752Z,91.14
2016-08-03T11:51:51.470Z,91.82
2016-08-03T11:52:51.504Z,91.14
2016-08-03T11:53:50.899Z,91.91
2016-08-03T11:54:51.562Z,92.25
2016-08-03T11:55:51.583Z,91.82
2016-08-03T11:56:51.609Z,92.11
2016-08-03T11:57:51.632Z,91.63
2016-08-03T11:58:51.663Z,91.82
2016-08-03T11:59:51.682Z,91.91
2016-08-03T12:00:51.015Z,91.14
2016-08-03T12:01:51.750Z,92.01
2016-08-03T12:02:51.050Z,92.49
2016-08-03T12:03:51.797Z,92.59
2016-08-03T12:04:51.119Z,92.55
2016-08-03T12:05:51.143Z,92.01
2016-08-03T12:06:51.157Z,91.77
2016-08-03T12:07:51.910Z,91.67
2016-08-03T12:08:51.214Z,91.91
2016-08-03T12:09:51.949Z,91.63
2016-08-03T12:10:51.319Z,90.66
2016-08-03T12:11:51.288Z,89.89
2016-08-03T12:12:51.394Z,89.74
2016-08-03T12:13:52.050Z,88.87
2016-08-03T12:14:52.132Z,88.04
2016-08-03T12:15:51.387Z,87.02
2016-08-03T12:16:51.501Z,85.61
2016-08-03T12:17:52.160Z,84.35
2016-08-03T12:18:51.482Z,83.81
2016-08-03T12:19:52.213Z,83.23
2016-08-03T12:20:52.237Z,82.4
2016-08-03T12:21:53.094Z,82.69
2016-08-03T12:22:52.288Z,82.78
2016-08-03T12:23:52.329Z,82.94
2016-08-03T12:24:52.352Z,83.62
2016-08-03T12:25:52.471Z,84.83
2016-08-03T12:26:52.396Z,84.64
2016-08-03T12:27:51.727Z,85.08
2016-08-03T12:28:51.906Z,86.34
2016-08-03T12:29:52.622Z,87.21
2016-08-03T12:30:51.951Z,88.23
2016-08-03T12:31:52.646Z,89.15
2016-08-03T12:32:52.659Z,88.29
2016-08-03T12:33:51.925Z,88.96
2016-08-03T12:34:52.819Z,89.35
2016-08-03T12:35:51.991Z,88.77
2016-08-03T12:36:52.819Z,87.99
2016-08-03T12:37:52.692Z,87.55
2016-08-03T12:38:52.811Z,87.6
2016-08-03T12:39:52.044Z,86.54
2016-08-03T12:40:52.921Z,84.93
2016-08-03T12:41:52.802Z,84.83
2016-08-03T12:42:52.889Z,85.13
2016-08-03T12:43:52.852Z,85.03
2016-08-03T12:44:52.883Z,85.03
2016-08-03T12:45:52.201Z,85.31
2016-08-03T12:46:52.931Z,86.44
2016-08-03T12:47:52.258Z,86.92
2016-08-03T12:48:52.994Z,86.92
2016-08-03T12:49:52.316Z,87.65
2016-08-03T12:50:52.383Z,88.91
2016-08-03T12:51:52.357Z,89.25
2016-08-03T12:52:52.397Z,90.32
2016-08-03T12:53:52.413Z,90.75
2016-08-03T12:54:52.441Z,91.33
2016-08-03T12:55:53.181Z,91.53
2016-08-03T12:56:53.347Z,91.87
2016-08-03T12:57:53.223Z,92.16
2016-08-03T12:58:52.554Z,92.55
2016-08-03T12:59:52.583Z,92.16